createdAt,value
2019-03-24T00:01:56.620Z,36.90
2019-03-24T00:04:25.038Z,42.50
2019-03-24T00:06:53.427Z,41.43
2019-03-24T00:09:21.832Z,36.37
2019-03-24T00:11:50.240Z,32.60
2019-03-24T00:14:18.668Z,37.33
2019-03-24T00:16:47.049Z,36.30
2019-03-24T00:19:15.476Z,38.90
2019-03-24T00:21:43.871Z,40.40
2019-03-24T00:24:12.277Z,40.00
2019-03-24T00:26:40.670Z,40.70
2019-03-24T00:29:09.133Z,47.07
2019-03-24T00:31:37.588Z,43.67
2019-03-24T00:34:06.003Z,45.17
2019-03-24T00:36:34.409Z,44.63
2019-03-24T00:39:04.508Z,44.10
2019-03-24T00:41:32.908Z,43.50
2019-03-24T00:44:01.336Z,45.83
2019-03-24T00:46:29.739Z,40.80
2019-03-24T00:48:58.150Z,42.10
2019-03-24T00:51:26.556Z,41.17
2019-03-24T00:53:54.943Z,44.67
2019-03-24T00:56:23.355Z,48.10
2019-03-24T00:58:51.762Z,43.60
2019-03-24T01:01:20.235Z,42.33
2019-03-24T01:03:48.646Z,64.73
2019-03-24T01:06:17.705Z,151.47
2019-03-24T01:08:46.105Z,168.20
2019-03-24T01:11:14.525Z,58.23
2019-03-24T01:13:42.908Z,79.17
2019-03-24T01:16:11.336Z,60.10
2019-03-24T01:18:39.739Z,52.20
2019-03-24T01:21:08.165Z,46.30
2019-03-24T01:23:36.571Z,49.20
2019-03-24T01:26:05.068Z,39.17
2019-03-24T01:28:33.461Z,44.23
2019-03-24T01:31:01.897Z,40.83
2019-03-24T01:33:30.282Z,36.30
2019-03-24T01:35:58.708Z,39.03
2019-03-24T01:38:27.098Z,37.43
2019-03-24T01:40:55.497Z,37.97
2019-03-24T01:43:23.915Z,35.07
2019-03-24T01:45:58.576Z,38.27
2019-03-24T01:48:22.446Z,38.60
2019-03-24T01:50:50.849Z,36.67
2019-03-24T01:53:19.251Z,40.33
2019-03-24T01:55:47.662Z,44.17
2019-03-24T01:58:16.057Z,40.97
2019-03-24T02:00:44.480Z,34.73
2019-03-24T02:03:12.884Z,37.00
2019-03-24T02:05:41.303Z,39.57
2019-03-24T02:08:09.705Z,39.60
2019-03-24T02:10:38.105Z,39.27
2019-03-24T02:13:06.579Z,46.30
2019-03-24T02:15:34.994Z,39.40
2019-03-24T02:18:03.397Z,37.77
2019-03-24T02:20:31.815Z,41.00
2019-03-24T02:23:00.220Z,42.30
2019-03-24T02:25:28.629Z,44.97
2019-03-24T02:27:57.053Z,45.03
2019-03-24T02:30:25.450Z,43.53
2019-03-24T02:32:53.864Z,37.10
2019-03-24T02:35:22.272Z,38.90
2019-03-24T02:37:50.697Z,34.37
2019-03-24T02:40:19.580Z,37.87
2019-03-24T02:42:48.075Z,39.07
2019-03-24T02:45:16.550Z,36.73
2019-03-24T02:47:45.829Z,36.40
2019-03-24T02:50:14.380Z,36.50
2019-03-24T02:52:42.821Z,34.13
2019-03-24T02:55:11.870Z,37.70
2019-03-24T02:57:40.293Z,37.17
2019-03-24T03:00:10.211Z,38.87
2019-03-24T03:02:38.703Z,37.30
2019-03-24T03:05:10.206Z,39.63
2019-03-24T03:07:41.425Z,40.90
2019-03-24T03:10:11.277Z,40.47
2019-03-24T03:12:39.770Z,38.90
2019-03-24T03:15:09.520Z,47.13
2019-03-24T03:17:38.086Z,43.67
2019-03-24T03:20:07.543Z,39.40
2019-03-24T03:22:35.969Z,41.70
2019-03-24T03:25:08.891Z,40.00
2019-03-24T03:27:37.446Z,38.20
2019-03-24T03:30:09.093Z,41.70
2019-03-24T03:32:37.722Z,37.97
2019-03-24T03:35:07.792Z,38.90
2019-03-24T03:37:36.516Z,43.30
2019-03-24T03:40:06.665Z,42.20
2019-03-24T03:42:35.158Z,43.30
2019-03-24T03:45:04.200Z,43.37
2019-03-24T03:47:32.626Z,40.83
2019-03-24T03:50:01.040Z,45.93
2019-03-24T03:52:29.462Z,45.13
2019-03-24T03:54:57.895Z,43.60
2019-03-24T03:57:26.372Z,41.60
2019-03-24T03:59:54.773Z,44.50
2019-03-24T04:02:23.200Z,42.93
2019-03-24T04:04:51.609Z,43.47
2019-03-24T04:07:20.033Z,43.70
2019-03-24T04:09:48.441Z,41.50
2019-03-24T04:12:16.867Z,42.53
2019-03-24T04:14:45.277Z,42.37
2019-03-24T04:17:13.705Z,45.50
2019-03-24T04:19:42.115Z,46.43
2019-03-24T04:22:10.544Z,43.93
2019-03-24T04:24:38.953Z,42.40
2019-03-24T04:27:07.370Z,44.03
2019-03-24T04:29:35.780Z,45.77
2019-03-24T04:32:04.201Z,45.70
2019-03-24T04:34:32.607Z,48.30
2019-03-24T04:37:01.040Z,49.77
2019-03-24T04:39:29.521Z,45.43
2019-03-24T04:41:57.945Z,45.33
2019-03-24T04:44:26.353Z,41.23
2019-03-24T04:46:54.773Z,42.27
2019-03-24T04:49:23.180Z,42.00
2019-03-24T04:51:51.621Z,39.77
2019-03-24T04:54:20.035Z,40.97
2019-03-24T04:56:48.442Z,43.60
2019-03-24T04:59:16.978Z,45.17
2019-03-24T05:01:45.392Z,44.20
2019-03-24T05:04:13.884Z,43.90
2019-03-24T05:06:43.230Z,44.60
2019-03-24T05:09:11.671Z,44.80
2019-03-24T05:11:40.077Z,46.33
2019-03-24T05:14:08.586Z,45.40
2019-03-24T05:16:36.994Z,42.27
2019-03-24T05:19:05.493Z,44.40
2019-03-24T05:21:33.905Z,40.57
2019-03-24T05:24:02.332Z,43.20
2019-03-24T05:26:30.743Z,46.73
2019-03-24T05:28:59.166Z,44.73
2019-03-24T05:31:27.572Z,46.20
2019-03-24T05:33:56.010Z,44.03
2019-03-24T05:36:24.412Z,42.80
2019-03-24T05:38:52.835Z,43.37
2019-03-24T05:41:21.245Z,42.73
2019-03-24T05:43:49.753Z,44.20
2019-03-24T05:46:18.164Z,43.17
2019-03-24T05:48:46.585Z,38.87
2019-03-24T05:51:15.025Z,41.07
2019-03-24T05:53:43.498Z,43.90
2019-03-24T05:56:11.898Z,46.07
2019-03-24T05:58:40.319Z,44.20
2019-03-24T06:01:08.725Z,41.67
2019-03-24T06:03:37.148Z,42.60
2019-03-24T06:06:05.560Z,41.60
2019-03-24T06:08:35.778Z,44.20
2019-03-24T06:11:04.117Z,43.50
2019-03-24T06:13:32.542Z,47.20
2019-03-24T06:16:00.954Z,43.43
2019-03-24T06:18:29.376Z,44.07
2019-03-24T06:20:57.852Z,44.73
2019-03-24T06:23:26.277Z,44.20
2019-03-24T06:25:54.696Z,43.27
2019-03-24T06:28:23.112Z,44.60
2019-03-24T06:30:51.517Z,44.70
2019-03-24T06:33:19.928Z,42.50
2019-03-24T06:35:48.422Z,41.87
2019-03-24T06:38:16.831Z,41.33
2019-03-24T06:40:45.265Z,38.80
2019-03-24T06:43:13.674Z,37.17
2019-03-24T06:45:42.097Z,38.40
2019-03-24T06:48:10.512Z,39.70
2019-03-24T06:50:38.942Z,39.40
2019-03-24T06:53:07.425Z,36.77
2019-03-24T06:55:35.853Z,39.10
2019-03-24T06:58:04.334Z,40.17
2019-03-24T07:00:32.756Z,39.30
2019-03-24T07:03:01.166Z,39.13
2019-03-24T07:05:29.597Z,36.77
2019-03-24T07:07:58.002Z,38.80
2019-03-24T07:10:26.430Z,40.27
2019-03-24T07:12:54.837Z,41.13
2019-03-24T07:15:23.262Z,43.03
2019-03-24T07:17:51.672Z,38.63
2019-03-24T07:20:20.097Z,42.73
2019-03-24T07:22:48.649Z,40.70
2019-03-24T07:25:17.069Z,39.17
2019-03-24T07:27:45.477Z,38.50
2019-03-24T07:30:14.440Z,38.20
2019-03-24T07:32:42.849Z,40.80
2019-03-24T07:35:11.373Z,41.03
2019-03-24T07:37:39.825Z,40.33
2019-03-24T07:40:08.385Z,39.93
2019-03-24T07:42:36.788Z,40.47
2019-03-24T07:45:07.455Z,37.57
2019-03-24T07:47:35.856Z,39.23
2019-03-24T07:50:06.991Z,40.30
2019-03-24T07:52:35.404Z,40.30
2019-03-24T07:55:05.564Z,42.90
2019-03-24T07:57:33.970Z,44.70
2019-03-24T08:00:02.462Z,45.10
2019-03-24T08:02:30.868Z,42.00
2019-03-24T08:04:59.284Z,41.20
2019-03-24T08:07:27.687Z,43.37
2019-03-24T08:09:56.105Z,46.37
2019-03-24T08:12:24.514Z,45.40
2019-03-24T08:14:52.930Z,43.77
2019-03-24T08:17:21.334Z,44.30
2019-03-24T08:19:49.741Z,44.77
2019-03-24T08:22:18.157Z,45.00
2019-03-24T08:24:46.566Z,48.07
2019-03-24T08:27:15.043Z,46.50
2019-03-24T08:29:43.464Z,47.57
2019-03-24T08:32:11.888Z,46.57
2019-03-24T08:34:40.293Z,47.27
2019-03-24T08:37:08.717Z,47.73
2019-03-24T08:39:37.128Z,47.70
2019-03-24T08:42:05.621Z,57.83
2019-03-24T08:44:34.033Z,50.67
2019-03-24T08:47:02.460Z,53.00
2019-03-24T08:49:30.870Z,59.50
2019-03-24T08:51:59.303Z,51.20
2019-03-24T08:54:27.720Z,52.87
2019-03-24T08:56:56.150Z,55.97
2019-03-24T08:59:24.563Z,58.30
2019-03-24T09:01:52.990Z,54.43
2019-03-24T09:04:21.405Z,56.33
2019-03-24T09:06:49.835Z,56.77
2019-03-24T09:09:18.240Z,54.10
2019-03-24T09:11:46.668Z,55.60
2019-03-24T09:14:15.084Z,59.83
2019-03-24T09:16:43.518Z,54.70
2019-03-24T09:19:11.928Z,54.40
2019-03-24T09:21:40.366Z,59.03
2019-03-24T09:24:08.774Z,58.13
2019-03-24T09:26:37.199Z,53.50
2019-03-24T09:29:05.605Z,55.40
2019-03-24T09:31:34.035Z,57.30
2019-03-24T09:34:02.445Z,55.80
2019-03-24T09:36:30.875Z,54.57
2019-03-24T09:38:59.296Z,57.20
2019-03-24T09:41:27.713Z,54.77
2019-03-24T09:43:56.126Z,54.73
2019-03-24T09:46:24.559Z,54.30
2019-03-24T09:49:02.718Z,57.70
2019-03-24T09:51:23.126Z,52.70
2019-03-24T09:53:51.529Z,51.30
2019-03-24T09:56:19.942Z,54.27
2019-03-24T09:58:48.429Z,49.77
2019-03-24T10:01:16.841Z,54.50
2019-03-24T10:03:45.272Z,50.50
2019-03-24T10:06:13.677Z,49.80
2019-03-24T10:08:47.074Z,52.00
2019-03-24T10:11:12.232Z,56.13
2019-03-24T10:13:40.664Z,52.87
2019-03-24T10:16:09.064Z,54.80
2019-03-24T10:18:37.492Z,53.60
2019-03-24T10:21:05.913Z,56.50
2019-03-24T10:23:34.337Z,55.60
2019-03-24T10:26:02.742Z,54.77
2019-03-24T10:28:31.184Z,59.43
2019-03-24T10:30:59.675Z,54.20
2019-03-24T10:33:28.152Z,52.40
2019-03-24T10:35:56.581Z,55.67
2019-03-24T10:38:25.006Z,54.57
2019-03-24T10:40:53.416Z,54.93
2019-03-24T10:43:21.850Z,52.03
2019-03-24T10:45:50.290Z,52.40
2019-03-24T10:48:18.712Z,58.00
2019-03-24T10:50:47.124Z,54.53
2019-03-24T10:53:15.552Z,57.00
2019-03-24T10:55:43.961Z,56.23
2019-03-24T10:58:12.384Z,57.00
2019-03-24T11:00:42.336Z,56.40
2019-03-24T11:03:11.030Z,56.27
2019-03-24T11:05:39.432Z,54.30
2019-03-24T11:08:07.952Z,56.37
2019-03-24T11:10:36.426Z,55.70
2019-03-24T11:13:04.992Z,55.47
2019-03-24T11:15:33.405Z,59.93
2019-03-24T11:18:01.829Z,55.17
2019-03-24T11:20:30.253Z,56.63
2019-03-24T11:22:58.683Z,58.00
2019-03-24T11:25:27.092Z,59.57
2019-03-24T11:27:55.524Z,60.20
2019-03-24T11:30:23.987Z,59.90
2019-03-24T11:32:52.429Z,54.13
2019-03-24T11:35:20.891Z,55.30
2019-03-24T11:37:49.386Z,55.40
2019-03-24T11:40:17.867Z,57.07
2019-03-24T11:42:46.279Z,54.10
2019-03-24T11:45:14.917Z,55.67
2019-03-24T11:47:43.331Z,56.10
2019-03-24T11:50:12.286Z,54.80
2019-03-24T11:52:40.698Z,51.80
2019-03-24T11:55:09.959Z,53.70
2019-03-24T11:57:38.462Z,55.80
2019-03-24T12:00:13.008Z,58.93
2019-03-24T12:02:41.508Z,59.17
2019-03-24T12:05:09.965Z,58.90
2019-03-24T12:07:38.369Z,57.80
2019-03-24T12:10:08.229Z,57.47
2019-03-24T12:12:36.708Z,59.03
2019-03-24T12:15:06.648Z,57.97
2019-03-24T12:17:35.129Z,58.40
2019-03-24T12:20:06.179Z,57.37
2019-03-24T12:22:34.569Z,55.57
2019-03-24T12:25:30.535Z,57.93
2019-03-24T12:27:59.098Z,58.20
2019-03-24T12:34:08.374Z,54.80
2019-03-24T12:36:36.766Z,54.83
2019-03-24T12:39:06.030Z,56.63
2019-03-24T12:41:34.446Z,53.90
2019-03-24T12:44:03.228Z,55.10
2019-03-24T12:46:31.646Z,54.20
2019-03-24T12:49:00.067Z,52.27
2019-03-24T12:51:28.466Z,50.67
2019-03-24T12:53:56.878Z,50.40
2019-03-24T12:56:25.279Z,47.90
2019-03-24T12:58:53.698Z,49.77
2019-03-24T13:01:22.112Z,50.50
2019-03-24T13:03:50.512Z,53.10
2019-03-24T13:06:18.907Z,51.83
2019-03-24T13:08:47.311Z,48.13
2019-03-24T13:11:15.722Z,45.63
2019-03-24T13:13:44.136Z,49.20
2019-03-24T13:16:12.544Z,49.47
2019-03-24T13:18:40.974Z,47.17
2019-03-24T13:21:09.443Z,46.13
2019-03-24T13:23:37.849Z,46.90
2019-03-24T13:26:06.259Z,47.77
2019-03-24T13:28:34.685Z,50.50
2019-03-24T13:31:03.066Z,47.10
2019-03-24T13:33:31.490Z,45.87
2019-03-24T13:36:04.296Z,44.07
2019-03-24T13:38:32.715Z,44.73
2019-03-24T13:41:01.119Z,41.73
2019-03-24T13:43:29.537Z,48.07
2019-03-24T13:45:57.946Z,45.03
2019-03-24T13:48:26.337Z,44.00
2019-03-24T13:50:54.782Z,43.20
2019-03-24T13:53:23.232Z,47.40
2019-03-24T13:55:51.645Z,45.50
2019-03-24T13:58:20.101Z,45.70
2019-03-24T14:00:48.517Z,45.97
2019-03-24T14:03:16.919Z,46.43
2019-03-24T14:05:45.331Z,47.27
2019-03-24T14:08:13.735Z,44.13
2019-03-24T14:10:42.147Z,45.23
2019-03-24T14:13:10.563Z,46.30
2019-03-24T14:15:38.981Z,46.07
2019-03-24T14:18:07.386Z,44.50
2019-03-24T14:20:43.258Z,44.80
2019-03-24T14:23:05.914Z,45.93
2019-03-24T14:25:34.335Z,44.73
2019-03-24T14:28:02.745Z,41.43
2019-03-24T14:30:49.090Z,45.03
2019-03-24T14:33:17.488Z,45.83
2019-03-24T14:35:45.968Z,49.53
2019-03-24T14:38:14.446Z,44.83
2019-03-24T14:40:42.940Z,43.70
2019-03-24T14:43:11.499Z,44.47
2019-03-24T14:45:39.921Z,41.67
2019-03-24T14:48:08.325Z,42.87
2019-03-24T14:50:36.731Z,46.87
2019-03-24T14:53:05.189Z,45.80
2019-03-24T14:55:33.625Z,43.00
2019-03-24T14:58:02.034Z,45.47
2019-03-24T15:00:43.771Z,43.80
2019-03-24T15:03:12.272Z,42.70
2019-03-24T15:05:40.992Z,45.27
2019-03-24T15:08:10.536Z,42.53
2019-03-24T15:10:38.964Z,40.97
2019-03-24T15:13:08.448Z,42.43
2019-03-24T15:15:36.998Z,41.70
2019-03-24T15:18:05.525Z,45.70
2019-03-24T15:20:33.934Z,42.43
2019-03-24T15:23:02.416Z,45.50
2019-03-24T15:25:30.877Z,43.10
2019-03-24T15:27:59.286Z,45.90
2019-03-24T15:30:27.698Z,45.93
2019-03-24T15:32:56.121Z,43.93
2019-03-24T15:35:24.511Z,46.83
2019-03-24T15:37:52.983Z,45.10
2019-03-24T15:40:21.402Z,45.30
2019-03-24T15:42:49.817Z,47.60
2019-03-24T15:45:18.291Z,45.37
2019-03-24T15:47:46.695Z,46.50
2019-03-24T15:50:15.120Z,46.80
2019-03-24T15:52:43.509Z,46.13
2019-03-24T15:55:12.008Z,45.93
2019-03-24T15:57:40.398Z,46.50
2019-03-24T16:00:09.538Z,50.07
2019-03-24T16:02:37.959Z,45.73
2019-03-24T16:05:07.341Z,47.97
2019-03-24T16:07:35.980Z,44.37
2019-03-24T16:10:06.436Z,45.40
2019-03-24T16:12:34.836Z,44.20
2019-03-24T16:15:04.598Z,42.60
2019-03-24T16:17:33.075Z,44.93
2019-03-24T16:20:01.477Z,42.93
2019-03-24T16:22:30.000Z,43.87
2019-03-24T16:24:58.747Z,44.30
2019-03-24T16:27:27.158Z,45.73
2019-03-24T16:29:55.557Z,48.67
2019-03-24T16:32:23.965Z,43.70
2019-03-24T16:34:52.382Z,44.90
2019-03-24T16:37:20.795Z,47.17
2019-03-24T16:39:49.214Z,43.10
2019-03-24T16:42:17.619Z,45.37
2019-03-24T16:44:46.073Z,42.63
2019-03-24T16:47:14.536Z,44.87
2019-03-24T16:49:42.909Z,44.87
2019-03-24T16:52:11.337Z,46.80
2019-03-24T16:54:39.989Z,42.77
2019-03-24T16:57:08.397Z,45.40
2019-03-24T16:59:36.857Z,45.43
2019-03-24T17:02:05.298Z,43.37
2019-03-24T17:04:33.718Z,44.47
2019-03-24T17:07:02.135Z,44.27
2019-03-24T17:09:30.531Z,43.77
2019-03-24T17:11:58.958Z,41.73
2019-03-24T17:14:27.354Z,44.50
2019-03-24T17:16:55.765Z,41.40
2019-03-24T17:19:24.194Z,44.27
2019-03-24T17:21:52.622Z,41.40
2019-03-24T17:24:21.010Z,44.37
2019-03-24T17:26:49.448Z,40.90
2019-03-24T17:29:17.850Z,42.57
2019-03-24T17:31:46.289Z,41.30
2019-03-24T17:34:14.696Z,42.00
2019-03-24T17:36:43.123Z,41.00
2019-03-24T17:39:11.791Z,42.87
2019-03-24T17:41:40.204Z,40.20
2019-03-24T17:44:08.612Z,40.40
2019-03-24T17:46:37.029Z,42.50
2019-03-24T17:49:05.428Z,41.47
2019-03-24T17:51:33.850Z,40.03
2019-03-24T17:54:02.251Z,38.30
2019-03-24T17:56:30.668Z,41.30
2019-03-24T17:58:59.086Z,39.90
2019-03-24T18:01:27.491Z,39.60
2019-03-24T18:03:55.895Z,41.10
2019-03-24T18:06:24.440Z,39.57
2019-03-24T18:08:52.853Z,40.20
2019-03-24T18:11:21.259Z,42.30
2019-03-24T18:13:49.650Z,39.93
2019-03-24T18:16:18.066Z,43.13
2019-03-24T18:18:46.476Z,40.23
2019-03-24T18:21:16.591Z,41.73
2019-03-24T18:23:45.029Z,44.67
2019-03-24T18:26:13.421Z,41.30
2019-03-24T18:28:41.838Z,41.23
2019-03-24T18:31:10.225Z,42.40
2019-03-24T18:33:38.647Z,40.40
2019-03-24T18:36:07.041Z,40.70
2019-03-24T18:38:35.441Z,41.50
2019-03-24T18:41:03.916Z,43.73
2019-03-24T18:43:32.331Z,42.33
2019-03-24T18:46:00.752Z,43.53
2019-03-24T18:48:29.167Z,47.83
2019-03-24T18:50:57.569Z,145.83
2019-03-24T18:53:25.994Z,59.03
2019-03-24T18:55:54.386Z,68.93
2019-03-24T18:58:22.807Z,62.77
2019-03-24T19:00:51.213Z,46.37
2019-03-24T19:03:19.626Z,43.90
2019-03-24T19:05:48.031Z,41.00
2019-03-24T19:08:16.458Z,43.40
2019-03-24T19:10:44.865Z,42.30
2019-03-24T19:13:13.279Z,44.97
2019-03-24T19:15:41.676Z,43.30
2019-03-24T19:18:10.092Z,40.97
2019-03-24T19:20:38.502Z,43.17
2019-03-24T19:23:06.917Z,41.60
2019-03-24T19:25:35.329Z,44.67
2019-03-24T19:28:03.811Z,44.33
2019-03-24T19:30:34.925Z,46.33
2019-03-24T19:33:03.339Z,42.40
2019-03-24T19:35:31.744Z,41.13
2019-03-24T19:38:00.814Z,39.27
2019-03-24T19:40:31.357Z,95.87
2019-03-24T19:42:59.912Z,44.13
2019-03-24T19:45:28.316Z,40.80
2019-03-24T19:47:56.809Z,41.67
2019-03-24T19:50:25.558Z,45.43
2019-03-24T19:52:53.985Z,52.17
2019-03-24T19:55:22.366Z,47.37
2019-03-24T19:57:50.788Z,43.90
2019-03-24T20:00:19.255Z,42.70
2019-03-24T20:02:48.026Z,41.23
2019-03-24T20:05:16.456Z,40.73
2019-03-24T20:07:48.145Z,37.93
2019-03-24T20:10:15.203Z,41.60
2019-03-24T20:12:43.615Z,39.73
2019-03-24T20:15:12.480Z,40.10
2019-03-24T20:17:40.879Z,41.10
2019-03-24T20:20:10.022Z,40.00
2019-03-24T20:22:38.434Z,40.13
2019-03-24T20:25:08.390Z,37.67
2019-03-24T20:27:37.757Z,36.50
2019-03-24T20:30:11.119Z,41.23
2019-03-24T20:32:39.518Z,39.43
2019-03-24T20:35:08.364Z,39.40
2019-03-24T20:37:36.774Z,38.17
2019-03-24T20:40:07.111Z,37.50
2019-03-24T20:42:35.523Z,39.00
2019-03-24T20:45:08.806Z,42.70
2019-03-24T20:47:37.205Z,40.73
2019-03-24T20:50:07.648Z,40.40
2019-03-24T20:52:36.063Z,42.93
2019-03-24T20:55:05.923Z,41.20
2019-03-24T20:57:34.413Z,43.57
2019-03-24T21:00:02.983Z,38.47
2019-03-24T21:02:31.416Z,36.60
2019-03-24T21:04:59.879Z,36.90
2019-03-24T21:07:28.299Z,37.13
2019-03-24T21:09:56.698Z,36.30
2019-03-24T21:12:25.105Z,41.00
2019-03-24T21:14:53.518Z,37.67
2019-03-24T21:17:21.934Z,41.43
2019-03-24T21:19:50.346Z,42.77
2019-03-24T21:22:18.763Z,39.87
2019-03-24T21:24:47.172Z,35.37
2019-03-24T21:27:15.584Z,33.97
2019-03-24T21:29:44.000Z,35.97
2019-03-24T21:32:12.396Z,35.43
2019-03-24T21:34:40.812Z,34.00
2019-03-24T21:37:09.209Z,35.93
2019-03-24T21:39:37.623Z,35.50
2019-03-24T21:42:06.029Z,33.30
2019-03-24T21:44:34.443Z,35.10
2019-03-24T21:47:02.863Z,33.60
2019-03-24T21:49:31.276Z,35.77
2019-03-24T21:51:59.661Z,34.03
2019-03-24T21:54:28.074Z,33.70
2019-03-24T21:56:56.469Z,32.57
2019-03-24T21:59:24.893Z,33.27
2019-03-24T22:01:53.292Z,34.90
2019-03-24T22:04:21.712Z,33.93
2019-03-24T22:06:50.115Z,34.50
2019-03-24T22:09:18.546Z,32.37
2019-03-24T22:11:46.933Z,31.57
2019-03-24T22:14:15.644Z,30.00
2019-03-24T22:16:44.117Z,27.90
2019-03-24T22:19:12.538Z,26.77
2019-03-24T22:21:40.950Z,23.40
2019-03-24T22:24:09.358Z,24.90
2019-03-24T22:26:37.749Z,23.47
2019-03-24T22:29:06.182Z,23.30
2019-03-24T22:31:34.667Z,22.40
2019-03-24T22:34:03.375Z,23.90
2019-03-24T22:36:31.783Z,23.03
2019-03-24T22:39:00.208Z,22.93
2019-03-24T22:41:28.596Z,24.30
2019-03-24T22:43:57.020Z,23.07
2019-03-24T22:46:25.436Z,24.20
2019-03-24T22:48:53.864Z,23.30
2019-03-24T22:51:22.265Z,24.87
2019-03-24T22:53:50.679Z,25.03
2019-03-24T22:56:19.094Z,23.97
2019-03-24T22:58:47.503Z,23.10
2019-03-24T23:01:16.750Z,23.13
2019-03-24T23:03:45.167Z,23.10
2019-03-24T23:06:13.569Z,23.23
2019-03-24T23:08:42.050Z,22.90
2019-03-24T23:11:10.437Z,22.30
2019-03-24T23:13:38.857Z,21.57
2019-03-24T23:16:07.251Z,21.13
2019-03-24T23:18:35.664Z,19.90
2019-03-24T23:21:04.134Z,22.50
2019-03-24T23:23:32.530Z,22.03
2019-03-24T23:26:00.967Z,23.33
2019-03-24T23:28:29.375Z,23.20
2019-03-24T23:30:57.787Z,24.03
2019-03-24T23:33:26.182Z,20.80
2019-03-24T23:35:54.592Z,25.40
2019-03-24T23:38:22.991Z,24.97
2019-03-24T23:40:51.415Z,25.20
2019-03-24T23:43:19.828Z,24.17
2019-03-24T23:45:48.237Z,26.33
2019-03-24T23:48:16.674Z,26.70
2019-03-24T23:50:45.105Z,27.90
2019-03-24T23:53:13.513Z,26.87
2019-03-24T23:55:42.057Z,28.30
2019-03-24T23:58:10.501Z,27.90
